createdAt,value
2023-01-18T00:00:15.161Z,34.11
2023-01-18T00:02:47.054Z,34.35
2023-01-18T00:05:16.482Z,34.49
2023-01-18T00:07:47.133Z,34.32
2023-01-18T00:10:17.668Z,34.31
2023-01-18T00:12:52.171Z,34.28
2023-01-18T00:15:23.302Z,34.27
2023-01-18T00:17:53.947Z,34.04
2023-01-18T00:20:24.554Z,34.29
2023-01-18T00:22:58.446Z,34.38
2023-01-18T00:25:29.646Z,34.28
2023-01-18T00:27:57.748Z,34.10
2023-01-18T00:30:27.742Z,34.52
2023-01-18T00:33:02.150Z,34.24
2023-01-18T00:35:29.802Z,34.44
2023-01-18T00:38:00.405Z,34.48
2023-01-18T00:40:30.741Z,34.31
2023-01-18T00:43:16.502Z,34.41
2023-01-18T00:45:46.721Z,34.06
2023-01-18T00:48:24.772Z,34.21
2023-01-18T00:50:55.391Z,34.38
2023-01-18T00:53:25.672Z,34.36
2023-01-18T00:56:04.033Z,34.46
2023-01-18T00:58:37.344Z,34.24
2023-01-18T01:01:10.183Z,34.33
2023-01-18T01:03:57.166Z,34.44
2023-01-18T01:06:44.215Z,34.09
2023-01-18T01:09:23.501Z,34.32
2023-01-18T01:12:13.259Z,34.18
2023-01-18T01:15:01.795Z,34.65
2023-01-18T01:17:50.841Z,34.48
2023-01-18T01:20:42.785Z,34.63
2023-01-18T01:23:37.725Z,34.51
2023-01-18T01:26:06.715Z,34.67
2023-01-18T01:28:35.857Z,34.53
2023-01-18T01:31:05.197Z,34.27
2023-01-18T01:33:34.051Z,34.17
2023-01-18T01:36:14.387Z,34.21
2023-01-18T01:38:47.997Z,34.03
2023-01-18T01:41:26.885Z,34.09
2023-01-18T01:44:00.066Z,34.28
2023-01-18T01:46:46.119Z,34.25
2023-01-18T01:49:21.620Z,34.32
2023-01-18T01:52:11.591Z,34.25
2023-01-18T01:55:25.857Z,33.90
2023-01-18T01:58:00.242Z,34.04
2023-01-18T02:00:31.265Z,34.21
2023-01-18T02:03:10.669Z,33.83
2023-01-18T02:05:44.422Z,33.76
2023-01-18T02:08:13.124Z,33.86
2023-01-18T02:10:46.773Z,33.68
2023-01-18T02:13:18.973Z,33.50
2023-01-18T02:15:58.523Z,33.16
2023-01-18T02:18:47.105Z,33.30
2023-01-18T02:21:20.368Z,33.21
2023-01-18T02:24:07.651Z,32.99
2023-01-18T02:26:59.868Z,32.94
2023-01-18T02:29:42.286Z,32.86
2023-01-18T02:32:29.555Z,32.99
2023-01-18T02:35:08.872Z,32.51
2023-01-18T02:38:12.938Z,32.49
2023-01-18T02:41:14.329Z,32.48
2023-01-18T02:44:04.003Z,32.43
2023-01-18T02:46:35.846Z,32.26
2023-01-18T02:49:20.874Z,32.68
2023-01-18T02:52:00.028Z,32.71
2023-01-18T02:54:32.438Z,32.60
2023-01-18T02:57:03.509Z,32.58
2023-01-18T02:59:43.020Z,32.72
2023-01-18T03:02:20.920Z,32.41
2023-01-18T03:04:56.300Z,32.16
2023-01-18T03:07:40.180Z,32.56
2023-01-18T03:10:10.774Z,32.35
2023-01-18T03:12:46.848Z,32.32
2023-01-18T03:15:30.090Z,32.24
2023-01-18T03:18:07.016Z,32.03
2023-01-18T03:20:41.608Z,31.95
2023-01-18T03:23:37.982Z,32.02
2023-01-18T03:26:10.595Z,32.04
2023-01-18T03:28:59.247Z,31.77
2023-01-18T03:31:57.486Z,31.83
2023-01-18T03:34:49.679Z,31.73
2023-01-18T03:37:31.204Z,31.86
2023-01-18T03:40:20.948Z,31.89
2023-01-18T03:43:14.865Z,32.27
2023-01-18T03:45:47.463Z,32.34
2023-01-18T03:48:26.819Z,32.87
2023-01-18T03:51:06.635Z,32.56
2023-01-18T03:53:40.338Z,33.20
2023-01-18T03:56:13.766Z,32.96
2023-01-18T03:58:43.552Z,33.18
2023-01-18T04:01:12.107Z,33.20
2023-01-18T04:03:42.613Z,33.43
2023-01-18T04:06:13.713Z,33.19
2023-01-18T04:08:43.632Z,33.39
2023-01-18T04:11:14.072Z,33.47
2023-01-18T04:13:47.107Z,33.60
2023-01-18T04:16:20.838Z,33.56
2023-01-18T04:18:48.502Z,33.67
2023-01-18T04:21:22.598Z,33.44
2023-01-18T04:23:50.633Z,33.77
2023-01-18T04:26:19.671Z,33.81
2023-01-18T04:28:50.175Z,33.55
2023-01-18T04:31:20.725Z,33.62
2023-01-18T04:33:51.699Z,33.71
2023-01-18T04:36:24.859Z,33.47
2023-01-18T04:38:54.313Z,33.47
2023-01-18T04:41:25.185Z,33.98
2023-01-18T04:43:58.419Z,33.88
2023-01-18T04:46:31.153Z,33.83
2023-01-18T04:48:58.487Z,33.88
2023-01-18T04:51:31.317Z,33.77
2023-01-18T04:53:59.445Z,33.63
2023-01-18T04:56:27.402Z,33.98
2023-01-18T04:59:01.006Z,34.07
2023-01-18T05:01:29.645Z,33.89
2023-01-18T05:03:57.095Z,33.67
2023-01-18T05:06:24.644Z,34.16
2023-01-18T05:08:54.713Z,33.88
2023-01-18T05:11:24.744Z,33.96
2023-01-18T05:14:01.038Z,33.74
2023-01-18T05:16:31.177Z,34.04
2023-01-18T05:19:04.361Z,34.12
2023-01-18T05:21:37.005Z,34.19
2023-01-18T05:24:12.902Z,34.20
2023-01-18T05:26:43.142Z,33.92
2023-01-18T05:29:16.676Z,33.84
2023-01-18T05:31:44.281Z,33.81
2023-01-18T05:34:14.755Z,33.68
2023-01-18T05:36:49.386Z,33.84
2023-01-18T05:39:19.661Z,33.69
2023-01-18T05:41:47.269Z,33.69
2023-01-18T05:44:16.030Z,33.67
2023-01-18T05:46:51.132Z,33.48
2023-01-18T05:49:24.456Z,33.54
2023-01-18T05:51:52.857Z,33.71
2023-01-18T05:54:21.636Z,33.75
2023-01-18T05:56:51.902Z,33.72
2023-01-18T05:59:22.375Z,33.71
2023-01-18T06:01:49.946Z,33.59
2023-01-18T06:04:20.541Z,33.79
2023-01-18T06:06:50.680Z,33.54
2023-01-18T06:09:23.613Z,33.74
2023-01-18T06:11:54.132Z,33.60
2023-01-18T06:14:27.437Z,33.76
2023-01-18T06:17:01.696Z,33.85
2023-01-18T06:19:32.044Z,33.80
2023-01-18T06:22:04.570Z,33.66
2023-01-18T06:24:38.102Z,33.93
2023-01-18T06:27:11.743Z,33.68
2023-01-18T06:29:42.316Z,33.86
2023-01-18T06:32:10.019Z,33.58
2023-01-18T06:34:40.791Z,34.00
2023-01-18T06:37:16.009Z,34.07
2023-01-18T06:39:52.117Z,34.08
2023-01-18T06:42:24.722Z,33.98
2023-01-18T06:44:56.606Z,34.34
2023-01-18T06:47:29.623Z,34.24
2023-01-18T06:50:00.801Z,33.78
2023-01-18T06:52:28.483Z,33.91
2023-01-18T06:54:58.924Z,34.09
2023-01-18T06:57:29.916Z,34.11
2023-01-18T07:00:00.993Z,33.97
2023-01-18T07:02:34.291Z,34.02
2023-01-18T07:05:08.406Z,34.15
2023-01-18T07:07:38.953Z,33.88
2023-01-18T07:10:17.392Z,33.94
2023-01-18T07:12:48.815Z,33.66
2023-01-18T07:15:24.263Z,33.79
2023-01-18T07:17:56.285Z,34.22
2023-01-18T07:20:32.444Z,34.07
2023-01-18T07:23:05.004Z,33.65
2023-01-18T07:25:40.917Z,33.57
2023-01-18T07:28:13.817Z,33.35
2023-01-18T07:30:44.203Z,33.63
2023-01-18T07:33:14.374Z,33.22
2023-01-18T07:35:44.230Z,33.54
2023-01-18T07:38:15.653Z,33.58
2023-01-18T07:40:46.929Z,33.58
2023-01-18T07:43:18.876Z,33.43
2023-01-18T07:45:58.161Z,33.60
2023-01-18T07:48:38.810Z,33.88
2023-01-18T07:51:11.215Z,33.58
2023-01-18T07:53:40.099Z,33.77
2023-01-18T07:56:17.863Z,33.35
2023-01-18T07:58:52.941Z,33.22
2023-01-18T08:01:22.804Z,33.01
2023-01-18T08:03:51.117Z,32.81
2023-01-18T08:06:26.376Z,32.48
2023-01-18T08:09:02.513Z,31.67
2023-01-18T08:11:32.483Z,30.34
2023-01-18T08:14:05.236Z,29.00
2023-01-18T08:16:39.239Z,28.68
2023-01-18T08:19:10.096Z,28.94
2023-01-18T08:21:41.200Z,28.52
2023-01-18T08:24:16.367Z,29.13
2023-01-18T08:26:49.327Z,28.89
2023-01-18T08:29:22.632Z,28.72
2023-01-18T08:32:03.925Z,29.62
2023-01-18T08:34:40.811Z,29.42
2023-01-18T08:37:17.531Z,29.31
2023-01-18T08:39:56.427Z,29.22
2023-01-18T08:42:32.395Z,30.07
2023-01-18T08:45:07.849Z,29.93
2023-01-18T08:47:51.921Z,30.00
2023-01-18T08:50:28.673Z,30.05
2023-01-18T08:53:00.768Z,30.02
2023-01-18T08:55:38.170Z,29.69
2023-01-18T08:58:15.028Z,30.42
2023-01-18T09:00:55.205Z,30.36
2023-01-18T09:03:25.464Z,28.80
2023-01-18T09:06:10.017Z,26.68
2023-01-18T09:08:42.068Z,26.33
2023-01-18T09:11:13.276Z,25.45
2023-01-18T09:14:01.007Z,24.85
2023-01-18T09:16:40.011Z,24.93
2023-01-18T09:19:11.497Z,25.33
2023-01-18T09:21:51.100Z,26.24
2023-01-18T09:24:35.418Z,26.42
2023-01-18T09:27:08.527Z,25.19
2023-01-18T09:29:53.032Z,23.82
2023-01-18T09:32:35.207Z,24.55
2023-01-18T09:35:18.397Z,25.52
2023-01-18T09:37:57.677Z,27.14
2023-01-18T09:40:44.204Z,27.06
2023-01-18T09:43:33.167Z,26.60
2023-01-18T09:46:02.074Z,26.84
2023-01-18T09:48:45.746Z,27.80
2023-01-18T09:51:25.679Z,26.92
2023-01-18T09:54:25.747Z,26.25
2023-01-18T09:57:12.308Z,25.69
2023-01-18T09:59:59.777Z,24.04
2023-01-18T10:02:36.175Z,23.92
2023-01-18T10:05:17.644Z,24.98
2023-01-18T10:08:08.055Z,25.58
2023-01-18T10:10:41.482Z,25.24
2023-01-18T10:13:27.570Z,26.54
2023-01-18T10:16:03.281Z,26.97
2023-01-18T10:18:30.919Z,27.23
2023-01-18T10:21:05.454Z,27.10
2023-01-18T10:23:56.411Z,27.64
2023-01-18T10:26:32.090Z,27.72
2023-01-18T10:29:15.834Z,28.60
2023-01-18T10:31:47.202Z,28.39
2023-01-18T10:34:24.576Z,29.24
2023-01-18T10:36:58.956Z,29.27
2023-01-18T10:39:34.294Z,29.95
2023-01-18T10:42:07.223Z,30.29
2023-01-18T10:44:38.904Z,30.20
2023-01-18T10:47:09.164Z,30.49
2023-01-18T10:49:43.421Z,29.78
2023-01-18T10:52:28.614Z,29.78
2023-01-18T10:55:03.184Z,28.96
2023-01-18T10:57:34.697Z,29.41
2023-01-18T11:00:12.635Z,30.01
2023-01-18T11:02:47.546Z,30.43
2023-01-18T11:05:29.436Z,30.44
2023-01-18T11:08:31.701Z,29.94
2023-01-18T11:11:03.935Z,30.25
2023-01-18T11:13:35.106Z,29.64
2023-01-18T11:16:21.033Z,30.06
2023-01-18T11:19:01.091Z,30.45
2023-01-18T11:21:45.650Z,29.69
2023-01-18T11:24:30.476Z,29.54
2023-01-18T11:27:04.702Z,29.84
2023-01-18T11:29:39.691Z,29.98
2023-01-18T11:32:19.734Z,30.08
2023-01-18T11:34:52.484Z,31.02
2023-01-18T11:37:37.531Z,30.60
2023-01-18T11:40:37.965Z,29.99
2023-01-18T11:43:28.148Z,30.11
2023-01-18T11:46:10.593Z,29.73
2023-01-18T11:49:02.235Z,30.31
2023-01-18T11:51:45.948Z,30.93
2023-01-18T11:54:22.874Z,31.16
2023-01-18T11:57:03.248Z,31.60
2023-01-18T11:59:37.393Z,31.83
2023-01-18T12:02:30.938Z,31.96
2023-01-18T12:05:13.586Z,32.26
2023-01-18T12:07:55.470Z,32.44
2023-01-18T12:10:27.281Z,32.71
2023-01-18T12:13:04.184Z,32.76
2023-01-18T12:15:39.673Z,32.95
2023-01-18T12:18:16.601Z,33.15
2023-01-18T12:21:22.456Z,33.14
2023-01-18T12:24:04.727Z,33.35
2023-01-18T12:26:47.588Z,33.11
2023-01-18T12:29:38.901Z,33.26
2023-01-18T12:32:33.635Z,33.49
2023-01-18T12:35:23.009Z,33.36
2023-01-18T12:38:02.707Z,33.34
2023-01-18T12:40:39.204Z,33.29
2023-01-18T12:43:38.709Z,33.41
2023-01-18T12:46:11.175Z,33.40
2023-01-18T12:49:04.807Z,33.21
2023-01-18T12:51:36.761Z,33.58
2023-01-18T12:54:20.826Z,33.47
2023-01-18T12:56:52.830Z,33.64
2023-01-18T12:59:32.057Z,33.24
2023-01-18T13:02:54.920Z,33.31
2023-01-18T13:05:52.600Z,33.41
2023-01-18T13:08:44.901Z,33.52
2023-01-18T13:11:26.396Z,33.17
2023-01-18T13:14:17.363Z,32.72
2023-01-18T13:17:05.791Z,32.42
2023-01-18T13:19:47.300Z,32.68
2023-01-18T13:22:21.385Z,32.30
2023-01-18T13:25:09.026Z,31.57
2023-01-18T13:27:57.973Z,31.72
2023-01-18T13:30:26.877Z,31.26
2023-01-18T13:32:55.705Z,31.15
2023-01-18T13:35:33.648Z,31.43
2023-01-18T13:38:16.554Z,31.34
2023-01-18T13:40:59.277Z,31.98
2023-01-18T13:43:36.321Z,31.72
2023-01-18T13:46:25.529Z,31.83
2023-01-18T13:49:02.576Z,32.46
2023-01-18T13:51:42.731Z,32.48
2023-01-18T13:54:39.826Z,32.72
2023-01-18T13:57:10.256Z,32.50
2023-01-18T13:59:51.189Z,33.04
2023-01-18T14:02:36.067Z,33.25
2023-01-18T14:05:16.452Z,33.32
2023-01-18T14:07:52.485Z,32.98
2023-01-18T14:10:40.533Z,33.16
2023-01-18T14:13:19.131Z,33.15
2023-01-18T14:16:01.592Z,32.54
2023-01-18T14:18:40.778Z,32.19
2023-01-18T14:21:37.816Z,32.17
2023-01-18T14:24:20.531Z,32.86
2023-01-18T14:26:57.790Z,32.71
2023-01-18T14:29:44.690Z,32.28
2023-01-18T14:32:30.061Z,32.42
2023-01-18T14:35:26.117Z,32.08
2023-01-18T14:38:18.202Z,32.03
2023-01-18T14:40:57.425Z,32.26
2023-01-18T14:43:36.649Z,32.15
2023-01-18T14:46:14.973Z,31.94
2023-01-18T14:48:59.023Z,32.51
2023-01-18T14:51:33.483Z,32.42
2023-01-18T14:54:09.003Z,32.88
2023-01-18T14:56:48.930Z,32.84
2023-01-18T14:59:33.535Z,33.16
2023-01-18T15:02:19.974Z,33.26
2023-01-18T15:04:49.628Z,33.81
2023-01-18T15:07:38.392Z,33.81
2023-01-18T15:10:12.623Z,34.07
2023-01-18T15:12:49.939Z,33.96
2023-01-18T15:15:33.905Z,34.19
2023-01-18T15:18:11.414Z,34.59
2023-01-18T15:21:15.057Z,34.24
2023-01-18T15:23:47.199Z,34.32
2023-01-18T15:26:20.716Z,34.22
2023-01-18T15:29:08.368Z,34.23
2023-01-18T15:31:48.215Z,34.24
2023-01-18T15:34:21.686Z,34.47
2023-01-18T15:37:06.319Z,34.07
2023-01-18T15:39:59.528Z,33.86
2023-01-18T15:42:33.117Z,33.16
2023-01-18T15:45:09.885Z,32.33
2023-01-18T15:48:00.363Z,30.88
2023-01-18T15:50:44.806Z,30.57
2023-01-18T15:53:21.979Z,31.64
2023-01-18T15:55:51.909Z,31.35
2023-01-18T15:58:38.145Z,31.48
2023-01-18T16:01:27.544Z,31.73
2023-01-18T16:04:07.961Z,31.79
2023-01-18T16:06:45.793Z,31.00
2023-01-18T16:09:26.537Z,31.03
2023-01-18T16:11:59.923Z,29.91
2023-01-18T16:14:46.313Z,30.01
2023-01-18T16:17:27.037Z,29.82
2023-01-18T16:20:07.999Z,29.78
2023-01-18T16:22:46.495Z,29.31
2023-01-18T16:25:21.390Z,29.75
2023-01-18T16:28:02.385Z,29.39
2023-01-18T16:30:39.180Z,29.39
2023-01-18T16:33:23.741Z,29.40
2023-01-18T16:36:01.608Z,29.80
2023-01-18T16:38:33.170Z,30.22
2023-01-18T16:41:06.770Z,30.99
2023-01-18T16:43:47.008Z,31.55
2023-01-18T16:46:19.960Z,32.11
2023-01-18T16:48:53.329Z,32.26
2023-01-18T16:51:28.679Z,33.08
2023-01-18T16:54:06.331Z,33.06
2023-01-18T16:56:34.757Z,33.49
2023-01-18T16:59:15.475Z,33.93
2023-01-18T17:01:46.988Z,33.88
2023-01-18T17:04:15.645Z,33.96
2023-01-18T17:06:45.145Z,34.26
2023-01-18T17:09:28.115Z,34.20
2023-01-18T17:11:58.474Z,34.62
2023-01-18T17:14:29.224Z,34.56
2023-01-18T17:16:57.146Z,34.58
2023-01-18T17:19:25.937Z,34.56
2023-01-18T17:21:56.692Z,34.57
2023-01-18T17:24:25.650Z,34.45
2023-01-18T17:26:56.288Z,34.58
2023-01-18T17:29:32.813Z,34.79
2023-01-18T17:32:16.864Z,34.92
2023-01-18T17:34:52.825Z,34.85
2023-01-18T17:37:20.561Z,34.73
2023-01-18T17:40:10.811Z,34.58
2023-01-18T17:42:40.995Z,34.69
2023-01-18T17:45:14.500Z,34.67
2023-01-18T17:47:43.424Z,34.78
2023-01-18T17:50:15.501Z,34.92
2023-01-18T17:52:46.025Z,34.81
2023-01-18T17:55:14.312Z,34.71
2023-01-18T17:57:45.022Z,34.65
2023-01-18T18:00:18.460Z,34.66
2023-01-18T18:02:51.618Z,34.92
2023-01-18T18:05:20.111Z,34.38
2023-01-18T18:07:49.774Z,34.69
2023-01-18T18:10:17.728Z,34.61
2023-01-18T18:12:49.939Z,34.50
2023-01-18T18:15:25.607Z,34.88
2023-01-18T18:17:55.552Z,34.87
2023-01-18T18:20:25.325Z,34.75
2023-01-18T18:22:58.103Z,34.84
2023-01-18T18:25:31.732Z,34.43
2023-01-18T18:28:02.507Z,34.69
2023-01-18T18:30:33.168Z,34.35
2023-01-18T18:33:05.738Z,34.53
2023-01-18T18:35:35.976Z,34.50
2023-01-18T18:38:08.505Z,34.59
2023-01-18T18:40:38.699Z,34.55
2023-01-18T18:43:11.316Z,34.39
2023-01-18T18:45:39.911Z,34.52
2023-01-18T18:48:10.212Z,34.44
2023-01-18T18:50:43.921Z,34.38
2023-01-18T18:53:14.027Z,34.35
2023-01-18T18:55:41.548Z,34.47
2023-01-18T18:58:11.794Z,34.33
2023-01-18T19:00:43.976Z,34.67
2023-01-18T19:03:11.676Z,34.47
2023-01-18T19:05:42.622Z,34.48
2023-01-18T19:08:12.785Z,34.21
2023-01-18T19:10:40.497Z,34.37
2023-01-18T19:13:10.712Z,34.14
2023-01-18T19:15:49.291Z,34.33
2023-01-18T19:18:20.112Z,34.51
2023-01-18T19:20:50.882Z,34.36
2023-01-18T19:23:20.907Z,34.51
2023-01-18T19:25:51.230Z,34.32
2023-01-18T19:28:22.105Z,34.64
2023-01-18T19:30:52.400Z,34.58
2023-01-18T19:33:23.141Z,34.40
2023-01-18T19:35:53.559Z,34.38
2023-01-18T19:38:21.429Z,34.25
2023-01-18T19:40:51.805Z,34.50
2023-01-18T19:43:22.031Z,33.90
2023-01-18T19:45:52.848Z,34.17
2023-01-18T19:48:25.628Z,34.19
2023-01-18T19:51:10.213Z,34.41
2023-01-18T19:53:47.008Z,34.25
2023-01-18T19:56:16.004Z,34.34
2023-01-18T19:58:44.820Z,34.32
2023-01-18T20:01:30.034Z,34.36
2023-01-18T20:04:05.874Z,34.29
2023-01-18T20:06:40.115Z,34.17
2023-01-18T20:09:18.495Z,34.06
2023-01-18T20:11:50.076Z,34.28
2023-01-18T20:14:19.503Z,34.18
2023-01-18T20:16:53.035Z,34.23
2023-01-18T20:19:24.124Z,34.01
2023-01-18T20:21:54.400Z,34.11
2023-01-18T20:24:27.469Z,34.21
2023-01-18T20:27:14.865Z,34.06
2023-01-18T20:29:46.620Z,33.93
2023-01-18T20:32:17.946Z,34.26
2023-01-18T20:34:50.804Z,34.40
2023-01-18T20:37:18.632Z,34.62
2023-01-18T20:39:47.285Z,34.34
2023-01-18T20:42:20.891Z,34.53
2023-01-18T20:44:54.650Z,34.30
2023-01-18T20:47:31.039Z,34.35
2023-01-18T20:50:01.179Z,34.07
2023-01-18T20:52:37.037Z,33.90
2023-01-18T20:55:05.242Z,33.95
2023-01-18T20:57:35.778Z,34.01
2023-01-18T21:00:06.353Z,34.38
2023-01-18T21:02:36.731Z,33.98
2023-01-18T21:05:07.832Z,34.09
2023-01-18T21:07:40.211Z,34.04
2023-01-18T21:10:10.871Z,34.17
2023-01-18T21:12:44.435Z,34.52
2023-01-18T21:15:14.835Z,34.20
2023-01-18T21:17:50.111Z,34.31
2023-01-18T21:20:20.606Z,34.27
2023-01-18T21:22:49.010Z,34.04
2023-01-18T21:25:16.784Z,34.33
2023-01-18T21:27:46.849Z,33.83
2023-01-18T21:30:20.431Z,34.11
2023-01-18T21:32:53.696Z,34.14
2023-01-18T21:35:22.137Z,33.90
2023-01-18T21:37:56.543Z,34.01
2023-01-18T21:40:27.248Z,33.80
2023-01-18T21:43:16.449Z,33.98
2023-01-18T21:45:55.981Z,33.91
2023-01-18T21:48:28.170Z,33.75
2023-01-18T21:51:21.405Z,33.94
2023-01-18T21:54:10.491Z,33.78
2023-01-18T21:56:40.477Z,33.94
2023-01-18T21:59:08.271Z,34.18
2023-01-18T22:01:47.576Z,33.94
2023-01-18T22:04:36.818Z,33.94
2023-01-18T22:07:05.038Z,33.56
2023-01-18T22:09:39.332Z,33.75
2023-01-18T22:12:07.100Z,33.31
2023-01-18T22:14:39.450Z,32.88
2023-01-18T22:17:13.341Z,32.77
2023-01-18T22:19:43.972Z,32.48
2023-01-18T22:22:13.090Z,32.30
2023-01-18T22:24:43.770Z,32.12
2023-01-18T22:27:16.989Z,31.75
2023-01-18T22:29:49.964Z,31.86
2023-01-18T22:32:21.649Z,31.79
2023-01-18T22:34:53.413Z,31.85
2023-01-18T22:37:22.109Z,31.57
2023-01-18T22:39:52.924Z,31.76
2023-01-18T22:42:24.564Z,31.97
2023-01-18T22:44:57.089Z,31.75
2023-01-18T22:47:28.130Z,31.82
2023-01-18T22:49:55.515Z,31.88
2023-01-18T22:52:26.097Z,31.72
2023-01-18T22:54:53.473Z,31.66
2023-01-18T22:57:23.822Z,31.64
2023-01-18T22:59:51.575Z,31.59
2023-01-18T23:02:21.845Z,32.05
2023-01-18T23:04:49.611Z,32.36
2023-01-18T23:07:17.548Z,32.75
2023-01-18T23:09:47.373Z,32.83
2023-01-18T23:12:17.890Z,33.27
2023-01-18T23:15:04.721Z,33.42
2023-01-18T23:17:42.776Z,33.51
2023-01-18T23:20:16.231Z,33.27
2023-01-18T23:22:49.615Z,33.21
2023-01-18T23:25:17.070Z,33.34
2023-01-18T23:27:45.258Z,33.76
2023-01-18T23:30:15.883Z,33.72
2023-01-18T23:32:46.478Z,33.68
2023-01-18T23:35:19.341Z,33.25
2023-01-18T23:37:46.885Z,33.29
2023-01-18T23:40:35.876Z,33.43
2023-01-18T23:43:22.379Z,33.67
2023-01-18T23:46:11.210Z,33.33
2023-01-18T23:48:57.540Z,33.46
2023-01-18T23:51:46.164Z,33.64
2023-01-18T23:54:22.459Z,33.69
2023-01-18T23:56:52.777Z,33.63
2023-01-18T23:59:25.719Z,33.60
